createdAt,value
2023-04-13T00:00:16.753Z,0.90
2023-04-13T00:02:45.350Z,1.13
2023-04-13T00:05:13.671Z,1.15
2023-04-13T00:07:43.296Z,0.85
2023-04-13T00:10:11.412Z,1.85
2023-04-13T00:12:40.975Z,1.85
2023-04-13T00:15:11.001Z,1.52
2023-04-13T00:17:39.022Z,0.80
2023-04-13T00:20:11.955Z,1.40
2023-04-13T00:22:40.282Z,2.55
2023-04-13T00:25:09.212Z,1.95
2023-04-13T00:27:39.029Z,1.38
2023-04-13T00:30:09.818Z,1.23
2023-04-13T00:32:40.764Z,1.00
2023-04-13T00:35:09.739Z,1.27
2023-04-13T00:37:38.638Z,2.47
2023-04-13T00:40:08.289Z,2.40
2023-04-13T00:42:36.694Z,1.20
2023-04-13T00:45:05.041Z,1.38
2023-04-13T00:47:35.607Z,1.08
2023-04-13T00:50:07.473Z,1.75
2023-04-13T00:52:38.155Z,2.08
2023-04-13T00:55:07.737Z,1.70
2023-04-13T00:57:36.536Z,1.15
2023-04-13T01:00:10.030Z,1.95
2023-04-13T01:02:43.249Z,1.48
2023-04-13T01:05:16.333Z,1.40
2023-04-13T01:07:55.594Z,1.45
2023-04-13T01:10:28.963Z,1.50
2023-04-13T01:13:10.562Z,4.38
2023-04-13T01:15:47.434Z,0.90
2023-04-13T01:20:54.274Z,0.77
2023-04-13T01:23:35.987Z,1.42
2023-04-13T01:26:08.961Z,1.20
2023-04-13T01:28:40.663Z,1.05
2023-04-13T01:31:12.019Z,1.10
2023-04-13T01:33:41.485Z,0.98
2023-04-13T01:36:12.587Z,1.10
2023-04-13T01:38:40.889Z,1.60
2023-04-13T01:41:10.703Z,0.60
2023-04-13T01:43:45.319Z,1.85
2023-04-13T01:46:15.400Z,2.47
2023-04-13T01:49:07.082Z,0.55
2023-04-13T01:51:57.374Z,2.00
2023-04-13T01:54:31.447Z,0.85
2023-04-13T01:57:02.129Z,0.60
2023-04-13T01:59:31.774Z,0.93
2023-04-13T02:02:00.055Z,1.80
2023-04-13T02:04:28.218Z,1.58
2023-04-13T02:06:56.362Z,0.73
2023-04-13T02:09:31.741Z,1.15
2023-04-13T02:11:59.679Z,2.05
2023-04-13T02:14:27.670Z,1.83
2023-04-13T02:16:57.054Z,1.10
2023-04-13T02:19:24.821Z,0.55
2023-04-13T02:21:53.292Z,1.27
2023-04-13T02:24:21.128Z,1.90
2023-04-13T02:26:49.368Z,2.33
2023-04-13T02:29:17.205Z,1.17
2023-04-13T02:31:46.441Z,0.77
2023-04-13T02:34:15.990Z,0.88
2023-04-13T02:36:44.277Z,1.08
2023-04-13T02:39:13.459Z,1.55
2023-04-13T02:41:42.884Z,0.85
2023-04-13T02:44:14.654Z,1.90
2023-04-13T02:47:02.766Z,1.17
2023-04-13T02:49:31.969Z,1.50
2023-04-13T02:52:12.209Z,1.70
2023-04-13T02:54:47.051Z,1.77
2023-04-13T02:57:15.219Z,1.83
2023-04-13T02:59:44.394Z,1.58
2023-04-13T03:02:13.072Z,2.38
2023-04-13T03:04:43.064Z,2.45
2023-04-13T03:07:14.252Z,2.35
2023-04-13T03:09:45.742Z,1.55
2023-04-13T03:12:15.326Z,0.77
2023-04-13T03:14:44.692Z,1.23
2023-04-13T03:17:12.942Z,1.40
2023-04-13T03:19:46.491Z,1.83
2023-04-13T03:22:14.656Z,0.98
2023-04-13T03:24:46.733Z,1.13
2023-04-13T03:27:21.605Z,1.88
2023-04-13T03:29:51.380Z,0.75
2023-04-13T03:32:23.158Z,2.78
2023-04-13T03:34:59.372Z,1.95
2023-04-13T03:37:29.987Z,2.35
2023-04-13T03:40:02.146Z,1.98
2023-04-13T03:42:35.224Z,1.60
2023-04-13T03:45:03.071Z,0.93
2023-04-13T03:47:32.107Z,2.17
2023-04-13T03:50:01.360Z,1.88
2023-04-13T03:52:30.576Z,2.55
2023-04-13T03:55:00.919Z,1.77
2023-04-13T03:57:34.386Z,1.45
2023-04-13T04:00:07.173Z,1.35
2023-04-13T04:03:04.641Z,1.67
2023-04-13T04:05:42.239Z,1.42
2023-04-13T04:08:10.404Z,1.35
2023-04-13T04:10:38.760Z,2.25
2023-04-13T04:13:06.657Z,0.88
2023-04-13T04:15:39.945Z,1.00
2023-04-13T04:18:08.713Z,1.65
2023-04-13T04:20:41.442Z,1.40
2023-04-13T04:23:13.791Z,1.50
2023-04-13T04:25:47.524Z,1.55
2023-04-13T04:28:18.060Z,0.63
2023-04-13T04:30:54.671Z,0.98
2023-04-13T04:33:23.737Z,2.33
2023-04-13T04:35:54.281Z,1.17
2023-04-13T04:38:30.440Z,1.70
2023-04-13T04:41:02.055Z,2.83
2023-04-13T04:43:30.471Z,1.70
2023-04-13T04:45:58.869Z,1.02
2023-04-13T04:48:31.656Z,1.75
2023-04-13T04:51:01.124Z,2.17
2023-04-13T04:53:34.424Z,1.08
2023-04-13T04:56:06.730Z,1.85
2023-04-13T04:58:43.227Z,1.35
2023-04-13T05:01:11.168Z,1.33
2023-04-13T05:03:39.751Z,2.25
2023-04-13T05:08:52.009Z,1.10
2023-04-13T05:11:20.612Z,1.02
2023-04-13T05:13:49.738Z,1.52
2023-04-13T05:16:21.454Z,3.35
2023-04-13T05:18:50.328Z,1.85
2023-04-13T05:21:32.201Z,1.70
2023-04-13T05:24:00.958Z,0.90
2023-04-13T05:26:30.706Z,1.30
2023-04-13T05:28:59.716Z,0.98
2023-04-13T05:31:32.284Z,1.55
2023-04-13T05:34:01.694Z,2.78
2023-04-13T05:36:32.201Z,1.35
2023-04-13T05:39:05.802Z,1.35
2023-04-13T05:41:35.086Z,1.00
2023-04-13T05:44:03.207Z,1.90
2023-04-13T05:46:32.229Z,2.55
2023-04-13T05:49:04.576Z,1.58
2023-04-13T05:51:34.035Z,2.03
2023-04-13T05:54:02.693Z,2.47
2023-04-13T05:56:31.468Z,2.15
2023-04-13T05:59:03.161Z,2.05
2023-04-13T06:01:31.436Z,1.83
2023-04-13T06:04:00.732Z,1.33
2023-04-13T06:06:30.207Z,1.45
2023-04-13T06:08:59.723Z,2.20
2023-04-13T06:11:27.838Z,3.10
2023-04-13T06:13:57.512Z,1.77
2023-04-13T06:16:26.709Z,2.53
2023-04-13T06:18:55.958Z,2.28
2023-04-13T06:21:23.870Z,1.77
2023-04-13T06:23:51.780Z,1.60
2023-04-13T06:26:30.152Z,2.08
2023-04-13T06:28:58.490Z,1.58
2023-04-13T06:31:27.621Z,1.85
2023-04-13T06:33:58.207Z,1.80
2023-04-13T06:36:31.104Z,2.72
2023-04-13T06:39:00.830Z,1.88
2023-04-13T06:41:32.282Z,2.35
2023-04-13T06:44:15.053Z,1.83
2023-04-13T06:46:53.416Z,1.92
2023-04-13T06:49:22.936Z,1.13
2023-04-13T06:51:52.321Z,1.17
2023-04-13T06:54:20.150Z,2.58
2023-04-13T06:56:53.485Z,1.80
2023-04-13T06:59:21.435Z,1.92
2023-04-13T07:01:49.320Z,1.65
2023-04-13T07:04:17.534Z,1.63
2023-04-13T07:06:48.382Z,2.08
2023-04-13T07:09:16.863Z,3.58
2023-04-13T07:11:45.011Z,1.88
2023-04-13T07:14:14.529Z,3.35
2023-04-13T07:16:42.379Z,1.63
2023-04-13T07:19:10.384Z,2.65
2023-04-13T07:21:38.293Z,1.40
2023-04-13T07:24:07.180Z,1.77
2023-04-13T07:26:37.422Z,2.05
2023-04-13T07:29:12.097Z,2.38
2023-04-13T07:31:43.753Z,2.15
2023-04-13T07:34:12.766Z,1.95
2023-04-13T07:36:46.071Z,1.75
2023-04-13T07:39:18.140Z,3.28
2023-04-13T07:41:49.497Z,2.45
2023-04-13T07:44:23.350Z,3.17
2023-04-13T07:46:52.793Z,3.10
2023-04-13T07:49:22.722Z,1.30
2023-04-13T07:51:53.980Z,3.33
2023-04-13T07:54:22.199Z,3.45
2023-04-13T07:56:51.802Z,1.58
2023-04-13T07:59:25.100Z,1.63
2023-04-13T08:01:55.511Z,3.30
2023-04-13T08:04:24.452Z,2.72
2023-04-13T08:06:53.773Z,2.17
2023-04-13T08:09:21.928Z,1.55
2023-04-13T08:11:50.998Z,2.72
2023-04-13T08:14:18.908Z,2.08
2023-04-13T08:16:49.318Z,3.88
2023-04-13T08:19:19.321Z,2.63
2023-04-13T08:21:52.474Z,2.65
2023-04-13T08:24:21.556Z,2.53
2023-04-13T08:26:49.621Z,3.13
2023-04-13T08:29:18.088Z,2.08
2023-04-13T08:31:47.601Z,3.05
2023-04-13T08:34:15.488Z,3.15
2023-04-13T08:36:45.948Z,3.55
2023-04-13T08:39:15.014Z,2.58
2023-04-13T08:41:46.965Z,5.28
2023-04-13T08:44:17.597Z,4.82
2023-04-13T08:46:48.587Z,2.72
2023-04-13T08:49:21.746Z,4.32
2023-04-13T08:52:12.677Z,2.47
2023-04-13T08:54:43.205Z,3.63
2023-04-13T08:57:21.162Z,4.28
2023-04-13T08:59:51.676Z,2.78
2023-04-13T09:02:24.025Z,3.00
2023-04-13T09:04:56.767Z,2.60
2023-04-13T09:07:30.849Z,4.28
2023-04-13T09:10:05.899Z,4.90
2023-04-13T09:12:33.857Z,2.63
2023-04-13T09:15:03.100Z,5.03
2023-04-13T09:17:35.204Z,2.95
2023-04-13T09:20:18.581Z,3.05
2023-04-13T09:22:48.124Z,6.83
2023-04-13T09:25:23.979Z,4.10
2023-04-13T09:27:53.086Z,4.53
2023-04-13T09:30:22.721Z,4.13
2023-04-13T09:33:04.083Z,5.45
2023-04-13T09:35:32.914Z,4.68
2023-04-13T09:38:02.797Z,4.40
2023-04-13T09:40:31.022Z,3.75
2023-04-13T09:43:01.997Z,6.05
2023-04-13T09:45:35.691Z,4.18
2023-04-13T09:48:04.329Z,3.83
2023-04-13T09:50:33.952Z,4.22
2023-04-13T09:53:04.945Z,4.45
2023-04-13T09:55:34.193Z,3.28
2023-04-13T09:58:10.920Z,7.85
2023-04-13T10:00:40.053Z,3.58
2023-04-13T10:03:12.166Z,4.70
2023-04-13T10:05:55.062Z,4.47
2023-04-13T10:08:37.191Z,5.40
2023-04-13T10:11:11.760Z,5.10
2023-04-13T10:13:46.049Z,5.15
2023-04-13T10:16:31.545Z,4.93
2023-04-13T10:19:02.409Z,4.25
2023-04-13T10:21:33.728Z,4.50
2023-04-13T10:24:11.404Z,4.22
2023-04-13T10:26:41.088Z,4.15
2023-04-13T10:29:10.205Z,4.00
2023-04-13T10:31:39.896Z,4.63
2023-04-13T10:34:07.931Z,5.22
2023-04-13T10:36:41.792Z,5.13
2023-04-13T10:39:11.544Z,4.22
2023-04-13T10:41:39.426Z,3.75
2023-04-13T10:44:08.960Z,4.97
2023-04-13T10:46:37.241Z,4.97
2023-04-13T10:49:06.991Z,4.70
2023-04-13T10:51:41.547Z,6.05
2023-04-13T10:54:12.104Z,4.50
2023-04-13T10:56:40.360Z,4.85
2023-04-13T10:59:08.414Z,3.80
2023-04-13T11:01:36.429Z,3.63
2023-04-13T11:04:07.701Z,4.28
2023-04-13T11:06:38.211Z,5.45
2023-04-13T11:09:08.145Z,3.75
2023-04-13T11:11:40.054Z,5.72
2023-04-13T11:14:08.024Z,4.63
2023-04-13T11:16:49.597Z,3.70
2023-04-13T11:19:18.919Z,5.35
2023-04-13T11:21:48.825Z,4.47
2023-04-13T11:24:25.690Z,6.68
2023-04-13T11:26:55.381Z,4.00
2023-04-13T11:29:23.180Z,5.28
2023-04-13T11:31:51.221Z,5.18
2023-04-13T11:34:28.710Z,6.57
2023-04-13T11:37:05.552Z,5.68
2023-04-13T11:39:36.376Z,5.68
2023-04-13T11:42:08.848Z,5.70
2023-04-13T11:44:36.987Z,4.95
2023-04-13T11:47:05.963Z,5.45
2023-04-13T11:49:34.362Z,4.28
2023-04-13T11:52:03.884Z,4.47
2023-04-13T11:54:32.643Z,5.22
2023-04-13T11:57:01.334Z,5.22
2023-04-13T11:59:30.607Z,8.50
2023-04-13T12:02:03.764Z,4.40
2023-04-13T12:04:38.659Z,5.15
2023-04-13T12:07:14.025Z,5.30
2023-04-13T12:09:56.216Z,3.83
2023-04-13T12:20:04.812Z,4.00
2023-04-13T12:22:50.870Z,4.10
2023-04-13T12:25:20.705Z,7.30
2023-04-13T12:27:51.048Z,3.92
2023-04-13T12:30:22.328Z,5.15
2023-04-13T12:32:52.952Z,4.00
2023-04-13T12:35:21.554Z,6.55
2023-04-13T12:37:50.149Z,5.82
2023-04-13T12:40:19.260Z,4.43
2023-04-13T12:42:48.043Z,3.15
2023-04-13T12:45:17.690Z,4.80
2023-04-13T12:47:47.018Z,4.95
2023-04-13T12:50:15.094Z,4.32
2023-04-13T12:52:44.572Z,5.07
2023-04-13T12:55:12.429Z,5.10
2023-04-13T12:57:40.556Z,4.80
2023-04-13T13:00:11.480Z,4.85
2023-04-13T13:02:39.971Z,3.75
2023-04-13T13:05:10.336Z,3.72
2023-04-13T13:07:38.341Z,5.00
2023-04-13T13:10:14.859Z,4.07
2023-04-13T13:12:50.060Z,3.75
2023-04-13T13:15:18.373Z,5.03
2023-04-13T13:17:46.532Z,3.80
2023-04-13T13:20:15.737Z,3.45
2023-04-13T13:22:43.772Z,3.50
2023-04-13T13:25:11.818Z,5.22
2023-04-13T13:28:10.441Z,4.18
2023-04-13T13:30:28.183Z,2.55
2023-04-13T13:32:56.094Z,5.10
2023-04-13T13:35:25.357Z,3.53
2023-04-13T13:37:53.186Z,3.67
2023-04-13T13:40:21.223Z,2.30
2023-04-13T13:42:52.442Z,2.92
2023-04-13T13:45:21.263Z,3.67
2023-04-13T13:47:52.484Z,4.20
2023-04-13T13:50:22.701Z,3.22
2023-04-13T13:53:03.230Z,3.88
2023-04-13T13:55:38.139Z,2.97
2023-04-13T13:58:06.052Z,4.65
2023-04-13T14:00:34.115Z,3.53
2023-04-13T14:03:02.256Z,3.92
2023-04-13T14:05:30.330Z,5.03
2023-04-13T14:07:59.597Z,3.95
2023-04-13T14:10:27.646Z,2.83
2023-04-13T14:12:55.825Z,5.32
2023-04-13T14:15:23.832Z,3.67
2023-04-13T14:18:06.357Z,3.85
2023-04-13T14:20:39.203Z,3.10
2023-04-13T14:23:09.526Z,4.47
2023-04-13T14:25:38.126Z,4.95
2023-04-13T14:28:07.009Z,3.95
2023-04-13T14:30:34.951Z,2.70
2023-04-13T14:33:03.939Z,4.75
2023-04-13T14:35:31.806Z,2.97
2023-04-13T14:37:59.624Z,2.88
2023-04-13T14:40:29.236Z,4.53
2023-04-13T14:42:57.055Z,2.67
2023-04-13T14:45:24.883Z,3.28
2023-04-13T14:47:53.614Z,4.97
2023-04-13T14:50:22.174Z,4.85
2023-04-13T14:52:50.277Z,4.28
2023-04-13T14:55:19.292Z,3.83
2023-04-13T14:57:48.530Z,3.97
2023-04-13T15:00:21.838Z,3.33
2023-04-13T15:02:52.476Z,2.47
2023-04-13T15:05:21.128Z,3.85
2023-04-13T15:07:51.019Z,3.25
2023-04-13T15:10:19.513Z,2.97
2023-04-13T15:12:49.223Z,3.97
2023-04-13T15:15:17.297Z,4.50
2023-04-13T15:17:45.106Z,3.67
2023-04-13T15:20:13.030Z,3.50
2023-04-13T15:22:41.102Z,2.47
2023-04-13T15:25:09.482Z,2.95
2023-04-13T15:27:37.402Z,3.45
2023-04-13T15:30:10.006Z,3.17
2023-04-13T15:32:37.914Z,5.20
2023-04-13T15:37:35.514Z,3.25
2023-04-13T15:40:07.621Z,3.22
2023-04-13T15:42:36.090Z,1.85
2023-04-13T15:45:05.383Z,3.50
2023-04-13T15:47:34.772Z,3.83
2023-04-13T15:50:04.165Z,3.05
2023-04-13T15:52:33.312Z,4.57
2023-04-13T15:55:01.152Z,2.55
2023-04-13T15:57:29.066Z,3.17
2023-04-13T15:59:57.603Z,3.25
2023-04-13T16:02:26.120Z,3.03
2023-04-13T16:04:56.083Z,3.45
2023-04-13T16:07:24.866Z,3.15
2023-04-13T16:09:56.293Z,3.33
2023-04-13T16:12:26.410Z,2.97
2023-04-13T16:14:56.028Z,2.22
2023-04-13T16:17:30.945Z,2.83
2023-04-13T16:20:18.200Z,3.28
2023-04-13T16:22:48.384Z,2.50
2023-04-13T16:25:16.856Z,3.92
2023-04-13T16:27:45.297Z,2.85
2023-04-13T16:30:15.583Z,2.38
2023-04-13T16:32:44.539Z,3.00
2023-04-13T16:35:13.940Z,4.22
2023-04-13T16:37:42.519Z,4.68
2023-04-13T16:40:11.654Z,3.75
2023-04-13T16:42:40.229Z,3.53
2023-04-13T16:45:12.272Z,2.40
2023-04-13T16:47:42.634Z,4.13
2023-04-13T16:50:12.275Z,3.35
2023-04-13T16:52:41.883Z,4.28
2023-04-13T16:55:13.819Z,2.35
2023-04-13T16:57:42.591Z,3.13
2023-04-13T17:00:11.764Z,4.88
2023-04-13T17:02:41.055Z,1.65
2023-04-13T17:05:10.807Z,2.83
2023-04-13T17:07:39.427Z,3.53
2023-04-13T17:10:10.770Z,3.28
2023-04-13T17:12:38.706Z,2.55
2023-04-13T17:15:07.714Z,2.13
2023-04-13T17:17:38.241Z,2.35
2023-04-13T17:20:07.606Z,3.08
2023-04-13T17:22:35.544Z,4.10
2023-04-13T17:25:03.645Z,4.30
2023-04-13T17:27:32.804Z,3.47
2023-04-13T17:30:00.743Z,2.28
2023-04-13T17:32:28.590Z,3.53
2023-04-13T17:34:57.212Z,4.70
2023-04-13T17:37:25.312Z,3.08
2023-04-13T17:39:53.199Z,2.90
2023-04-13T17:42:21.066Z,3.35
2023-04-13T17:44:50.264Z,3.15
2023-04-13T17:47:18.230Z,3.30
2023-04-13T17:49:49.126Z,2.13
2023-04-13T17:52:16.972Z,1.33
2023-04-13T17:54:44.774Z,2.40
2023-04-13T17:57:13.270Z,1.98
2023-04-13T17:59:41.816Z,2.80
2023-04-13T18:02:11.304Z,2.75
2023-04-13T18:04:39.378Z,2.90
2023-04-13T18:07:07.315Z,2.83
2023-04-13T18:09:35.122Z,2.38
2023-04-13T18:12:03.259Z,2.35
2023-04-13T18:14:31.037Z,1.85
2023-04-13T18:16:58.999Z,2.00
2023-04-13T18:19:30.484Z,2.58
2023-04-13T18:21:58.348Z,1.92
2023-04-13T18:24:26.363Z,3.40
2023-04-13T18:26:54.231Z,2.40
2023-04-13T18:29:22.136Z,3.35
2023-04-13T18:31:50.124Z,3.00
2023-04-13T18:34:18.120Z,2.55
2023-04-13T18:36:47.447Z,2.92
2023-04-13T18:39:15.502Z,4.80
2023-04-13T18:41:43.354Z,3.25
2023-04-13T18:44:11.208Z,3.78
2023-04-13T18:46:39.270Z,2.80
2023-04-13T18:49:07.168Z,3.97
2023-04-13T18:51:35.746Z,3.03
2023-04-13T18:54:05.631Z,3.15
2023-04-13T18:56:33.822Z,3.25
2023-04-13T18:59:01.696Z,3.30
2023-04-13T19:01:29.722Z,3.60
2023-04-13T19:03:57.994Z,3.40
2023-04-13T19:06:26.929Z,2.40
2023-04-13T19:08:54.962Z,3.13
2023-04-13T19:11:27.468Z,4.80
2023-04-13T19:13:55.508Z,3.25
2023-04-13T19:16:23.711Z,6.22
2023-04-13T19:18:51.799Z,3.03
2023-04-13T19:21:23.676Z,4.03
2023-04-13T19:23:51.639Z,3.17
2023-04-13T19:26:19.429Z,4.32
2023-04-13T19:28:48.715Z,2.88
2023-04-13T19:31:16.994Z,3.33
2023-04-13T19:33:46.137Z,3.45
2023-04-13T19:36:13.960Z,2.35
2023-04-13T19:38:44.822Z,3.75
2023-04-13T19:41:12.865Z,3.30
2023-04-13T19:43:40.770Z,2.75
2023-04-13T19:46:10.105Z,2.92
2023-04-13T19:48:38.595Z,2.92
2023-04-13T19:51:06.474Z,3.47
2023-04-13T19:53:36.143Z,4.10
2023-04-13T19:56:05.450Z,5.05
2023-04-13T19:58:33.422Z,3.47
2023-04-13T20:01:02.000Z,3.42
2023-04-13T20:03:31.521Z,3.63
2023-04-13T20:06:00.002Z,3.88
2023-04-13T20:08:27.885Z,3.28
2023-04-13T20:10:56.644Z,4.53
2023-04-13T20:13:25.791Z,3.05
2023-04-13T20:15:53.721Z,3.45
2023-04-13T20:18:21.486Z,3.97
2023-04-13T20:20:51.331Z,3.13
2023-04-13T20:23:19.293Z,3.72
2023-04-13T20:25:47.281Z,3.92
2023-04-13T20:28:15.240Z,3.55
2023-04-13T20:30:43.058Z,3.47
2023-04-13T20:33:10.873Z,4.47
2023-04-13T20:35:38.860Z,3.80
2023-04-13T20:38:08.119Z,3.83
2023-04-13T20:40:36.184Z,2.65
2023-04-13T20:43:06.232Z,5.72
2023-04-13T20:45:36.210Z,4.85
2023-04-13T20:48:48.210Z,5.68
2023-04-13T20:50:53.646Z,5.35
2023-04-13T20:53:23.966Z,4.68
2023-04-13T20:55:52.551Z,3.97
2023-04-13T20:58:20.353Z,3.13
2023-04-13T21:00:48.267Z,3.40
2023-04-13T21:03:16.169Z,4.00
2023-04-13T21:05:44.331Z,3.60
2023-04-13T21:08:12.362Z,2.38
2023-04-13T21:10:41.600Z,2.75
2023-04-13T21:13:10.902Z,3.97
2023-04-13T21:15:40.565Z,2.53
2023-04-13T21:18:08.533Z,2.40
2023-04-13T21:20:36.699Z,3.22
2023-04-13T21:23:04.447Z,2.95
2023-04-13T21:25:32.364Z,3.15
2023-04-13T21:28:03.120Z,3.85
2023-04-13T21:30:31.115Z,3.25
2023-04-13T21:32:59.190Z,3.67
2023-04-13T21:35:27.046Z,3.15
2023-04-13T21:37:54.783Z,2.67
2023-04-13T21:40:24.228Z,2.70
2023-04-13T21:42:52.354Z,3.00
2023-04-13T21:45:21.976Z,3.83
2023-04-13T21:47:49.825Z,2.13
2023-04-13T21:53:36.324Z,2.58
2023-04-13T21:56:05.048Z,1.88
2023-04-13T21:58:39.528Z,3.17
2023-04-13T22:01:09.293Z,2.08
2023-04-13T22:03:38.215Z,2.92
2023-04-13T22:06:08.468Z,3.25
2023-04-13T22:08:36.837Z,3.05
2023-04-13T22:11:06.022Z,3.42
2023-04-13T22:13:34.718Z,3.97
2023-04-13T22:16:02.923Z,3.30
2023-04-13T22:18:32.167Z,3.47
2023-04-13T22:21:00.828Z,2.97
2023-04-13T22:23:29.191Z,2.13
2023-04-13T22:25:58.798Z,3.58
2023-04-13T22:28:26.801Z,2.92
2023-04-13T22:30:54.811Z,3.45
2023-04-13T22:33:22.908Z,2.72
2023-04-13T22:35:52.368Z,3.00
2023-04-13T22:38:20.588Z,3.50
2023-04-13T22:40:48.399Z,3.55
2023-04-13T22:43:16.246Z,3.05
2023-04-13T22:45:44.093Z,2.63
2023-04-13T22:48:11.844Z,3.67
2023-04-13T22:50:39.831Z,4.10
2023-04-13T22:53:09.160Z,2.58
2023-04-13T22:55:36.896Z,3.50
2023-04-13T22:58:04.680Z,3.22
2023-04-13T23:00:32.460Z,2.88
2023-04-13T23:03:00.475Z,2.47
2023-04-13T23:05:28.457Z,3.10
2023-04-13T23:07:56.257Z,3.20
2023-04-13T23:10:25.793Z,3.47
2023-04-13T23:12:53.699Z,3.00
2023-04-13T23:15:21.620Z,4.18
2023-04-13T23:17:50.372Z,3.80
2023-04-13T23:20:18.455Z,2.92
2023-04-13T23:22:46.375Z,3.80
2023-04-13T23:25:14.320Z,4.22
2023-04-13T23:27:43.541Z,2.83
2023-04-13T23:30:12.304Z,2.90
2023-04-13T23:32:40.370Z,3.22
2023-04-13T23:35:09.657Z,3.75
2023-04-13T23:37:37.702Z,2.60
2023-04-13T23:40:06.397Z,2.45
2023-04-13T23:42:34.198Z,2.38
2023-04-13T23:45:04.160Z,4.13
2023-04-13T23:47:32.132Z,3.17
2023-04-13T23:49:59.994Z,3.92
2023-04-13T23:52:28.814Z,3.90
2023-04-13T23:54:56.960Z,3.80
2023-04-13T23:57:24.797Z,3.40
2023-04-13T23:59:57.567Z,3.53
